createdAt,value
2018-07-28T00:01:51.543Z,4.30
2018-07-28T00:04:22.766Z,4.13
2018-07-28T00:06:55.445Z,6.67
2018-07-28T00:09:28.691Z,5.20
2018-07-28T00:11:59.591Z,5.33
2018-07-28T00:14:29.341Z,6.20
2018-07-28T00:16:59.755Z,4.07
2018-07-28T00:19:29.180Z,4.83
2018-07-28T00:22:00.545Z,4.00
2018-07-28T00:24:32.123Z,4.30
2018-07-28T00:27:06.632Z,4.23
2018-07-28T00:29:37.216Z,5.20
2018-07-28T00:32:07.956Z,4.40
2018-07-28T00:34:38.124Z,4.23
2018-07-28T00:37:08.199Z,4.03
2018-07-28T00:39:38.459Z,3.60
2018-07-28T00:42:08.428Z,4.40
2018-07-28T00:44:38.517Z,3.67
2018-07-28T00:47:08.669Z,4.33
2018-07-28T00:49:39.820Z,4.50
2018-07-28T00:52:09.589Z,5.60
2018-07-28T00:54:39.757Z,4.83
2018-07-28T00:57:09.323Z,4.40
2018-07-28T00:59:39.753Z,4.47
2018-07-28T01:02:10.196Z,4.40
2018-07-28T01:04:41.537Z,4.87
2018-07-28T01:07:18.357Z,4.23
2018-07-28T01:09:48.879Z,4.20
2018-07-28T01:12:19.783Z,3.70
2018-07-28T01:14:50.166Z,4.63
2018-07-28T01:17:23.412Z,3.73
2018-07-28T01:19:53.083Z,3.77
2018-07-28T01:22:23.146Z,4.47
2018-07-28T01:24:55.167Z,4.53
2018-07-28T01:27:26.069Z,3.80
2018-07-28T01:29:56.385Z,4.23
2018-07-28T01:32:27.682Z,3.83
2018-07-28T01:34:58.984Z,7.57
2018-07-28T01:37:29.964Z,4.10
2018-07-28T01:40:02.194Z,3.90
2018-07-28T01:42:31.454Z,3.70
2018-07-28T01:45:02.025Z,3.70
2018-07-28T01:47:31.822Z,3.70
2018-07-28T01:50:02.624Z,3.73
2018-07-28T01:52:36.278Z,5.43
2018-07-28T01:55:07.540Z,4.10
2018-07-28T01:57:40.165Z,3.53
2018-07-28T02:00:10.692Z,4.17
2018-07-28T02:02:40.307Z,3.60
2018-07-28T02:05:11.818Z,3.93
2018-07-28T02:07:43.885Z,3.80
2018-07-28T02:10:14.404Z,3.73
2018-07-28T02:12:45.254Z,3.60
2018-07-28T02:15:15.130Z,3.40
2018-07-28T02:17:46.829Z,3.87
2018-07-28T02:20:17.816Z,3.63
2018-07-28T02:22:47.978Z,7.10
2018-07-28T02:25:18.519Z,3.70
2018-07-28T02:27:49.935Z,3.63
2018-07-28T02:30:20.453Z,3.53
2018-07-28T02:32:51.041Z,3.40
2018-07-28T02:35:20.817Z,9.33
2018-07-28T02:37:50.939Z,3.20
2018-07-28T02:40:21.029Z,3.73
2018-07-28T02:42:51.023Z,6.57
2018-07-28T02:45:21.907Z,3.53
2018-07-28T02:48:13.362Z,3.67
2018-07-28T02:50:43.359Z,3.77
2018-07-28T02:53:13.998Z,4.20
2018-07-28T02:55:43.735Z,3.50
2018-07-28T02:58:15.647Z,4.53
2018-07-28T03:00:45.709Z,4.30
2018-07-28T03:03:17.338Z,4.10
2018-07-28T03:05:48.343Z,4.40
2018-07-28T03:08:18.980Z,4.43
2018-07-28T03:10:49.265Z,6.73
2018-07-28T03:13:19.547Z,4.50
2018-07-28T03:15:49.132Z,3.80
2018-07-28T03:18:19.925Z,4.33
2018-07-28T03:20:50.999Z,4.43
2018-07-28T03:23:21.283Z,4.00
2018-07-28T03:25:51.110Z,4.40
2018-07-28T03:28:21.853Z,4.23
2018-07-28T03:30:51.115Z,4.80
2018-07-28T03:33:20.639Z,4.67
2018-07-28T03:35:50.223Z,5.20
2018-07-28T03:38:24.135Z,4.27
2018-07-28T03:40:55.350Z,4.83
2018-07-28T03:43:26.049Z,4.73
2018-07-28T03:45:57.017Z,7.77
2018-07-28T03:48:30.422Z,4.97
2018-07-28T03:51:02.074Z,5.93
2018-07-28T03:53:32.630Z,4.80
2018-07-28T03:56:03.407Z,6.27
2018-07-28T03:58:45.894Z,5.03
2018-07-28T04:01:16.171Z,4.73
2018-07-28T04:03:48.027Z,4.30
2018-07-28T04:06:18.078Z,5.10
2018-07-28T04:08:55.864Z,6.00
2018-07-28T04:11:27.703Z,5.07
2018-07-28T04:13:57.706Z,5.00
2018-07-28T04:16:28.631Z,4.60
2018-07-28T04:18:59.715Z,5.57
2018-07-28T04:21:30.477Z,5.23
2018-07-28T04:24:01.214Z,4.93
2018-07-28T04:26:31.214Z,4.83
2018-07-28T04:29:01.957Z,5.10
2018-07-28T04:31:31.990Z,5.23
2018-07-28T04:34:02.850Z,5.30
2018-07-28T04:36:34.471Z,4.83
2018-07-28T04:39:08.986Z,6.73
2018-07-28T04:41:38.728Z,5.67
2018-07-28T04:44:09.511Z,5.17
2018-07-28T04:46:39.792Z,4.80
2018-07-28T04:49:12.035Z,6.87
2018-07-28T04:51:43.602Z,4.77
2018-07-28T04:54:13.674Z,6.33
2018-07-28T04:56:42.984Z,7.67
2018-07-28T04:59:18.901Z,5.43
2018-07-28T05:01:50.397Z,4.53
2018-07-28T05:04:20.580Z,5.00
2018-07-28T05:06:50.723Z,8.53
2018-07-28T05:09:20.923Z,9.20
2018-07-28T05:11:51.842Z,6.13
2018-07-28T05:14:21.701Z,10.77
2018-07-28T05:16:51.188Z,8.13
2018-07-28T05:19:27.948Z,6.33
2018-07-28T05:21:57.849Z,6.80
2018-07-28T05:24:29.529Z,10.10
2018-07-28T05:26:59.184Z,4.53
2018-07-28T05:29:33.034Z,4.87
2018-07-28T05:32:03.058Z,4.87
2018-07-28T05:34:33.972Z,5.93
2018-07-28T05:37:04.710Z,4.80
2018-07-28T05:39:35.972Z,5.73
2018-07-28T05:42:05.278Z,5.53
2018-07-28T05:44:36.070Z,8.23
2018-07-28T05:47:06.006Z,5.03
2018-07-28T05:49:36.548Z,6.30
2018-07-28T05:52:06.162Z,4.67
2018-07-28T05:54:37.197Z,4.37
2018-07-28T05:57:06.687Z,6.60
2018-07-28T05:59:36.857Z,6.03
2018-07-28T06:02:07.165Z,6.43
2018-07-28T06:04:38.119Z,4.53
2018-07-28T06:07:08.817Z,6.47
2018-07-28T06:09:41.104Z,5.77
2018-07-28T06:12:11.708Z,6.80
2018-07-28T06:14:40.998Z,7.13
2018-07-28T06:17:15.871Z,11.50
2018-07-28T06:19:54.169Z,4.80
2018-07-28T06:22:24.513Z,6.43
2018-07-28T06:24:55.778Z,8.63
2018-07-28T06:27:26.581Z,11.20
2018-07-28T06:29:57.334Z,5.77
2018-07-28T06:32:27.078Z,9.27
2018-07-28T06:34:57.473Z,7.53
2018-07-28T06:37:28.513Z,6.13
2018-07-28T06:40:01.391Z,4.90
2018-07-28T06:42:31.126Z,5.50
2018-07-28T06:45:01.603Z,8.97
2018-07-28T06:47:30.857Z,5.80
2018-07-28T06:50:02.707Z,8.77
2018-07-28T06:52:32.760Z,9.17
2018-07-28T06:55:03.768Z,6.47
2018-07-28T06:57:33.990Z,9.27
2018-07-28T07:00:09.915Z,6.03
2018-07-28T07:02:40.697Z,8.27
2018-07-28T07:05:11.553Z,8.90
2018-07-28T07:07:42.878Z,6.53
2018-07-28T07:10:14.044Z,9.73
2018-07-28T07:12:43.702Z,4.40
2018-07-28T07:15:14.253Z,6.37
2018-07-28T07:17:44.969Z,5.77
2018-07-28T07:20:17.994Z,7.37
2018-07-28T07:22:48.068Z,6.13
2018-07-28T07:25:19.545Z,4.23
2018-07-28T07:27:49.068Z,4.77
2018-07-28T07:30:20.932Z,8.50
2018-07-28T07:32:53.502Z,9.03
2018-07-28T07:35:23.746Z,4.00
2018-07-28T07:37:53.096Z,7.90
2018-07-28T07:40:28.234Z,4.23
2018-07-28T07:42:59.739Z,5.87
2018-07-28T07:45:30.452Z,7.47
2018-07-28T07:48:01.797Z,6.70
2018-07-28T07:50:35.522Z,6.00
2018-07-28T07:53:04.774Z,7.73
2018-07-28T07:55:34.391Z,4.33
2018-07-28T07:58:07.137Z,5.80
2018-07-28T08:00:39.508Z,7.30
2018-07-28T08:03:09.685Z,7.43
2018-07-28T08:05:41.542Z,8.27
2018-07-28T08:08:12.786Z,5.27
2018-07-28T08:10:44.819Z,9.17
2018-07-28T08:13:16.163Z,4.37
2018-07-28T08:15:46.381Z,7.53
2018-07-28T08:18:18.141Z,5.73
2018-07-28T08:20:49.870Z,4.73
2018-07-28T08:23:28.392Z,9.23
2018-07-28T08:25:59.744Z,6.50
2018-07-28T08:28:31.354Z,5.20
2018-07-28T08:31:03.326Z,5.90
2018-07-28T08:33:36.237Z,6.27
2018-07-28T08:36:07.389Z,8.03
2018-07-28T08:38:36.729Z,5.73
2018-07-28T08:41:06.679Z,6.33
2018-07-28T08:43:39.595Z,3.90
2018-07-28T08:46:08.980Z,6.80
2018-07-28T08:48:39.378Z,4.10
2018-07-28T08:51:10.002Z,4.53
2018-07-28T08:53:41.581Z,6.10
2018-07-28T08:56:11.169Z,4.13
2018-07-28T08:58:40.999Z,4.37
2018-07-28T09:01:10.250Z,5.17
2018-07-28T09:03:39.877Z,4.90
2018-07-28T09:06:09.289Z,4.83
2018-07-28T09:08:39.825Z,5.30
2018-07-28T09:11:09.462Z,4.40
2018-07-28T09:13:41.858Z,5.73
2018-07-28T09:16:11.148Z,4.97
2018-07-28T09:18:41.209Z,4.30
2018-07-28T09:21:10.604Z,5.83
2018-07-28T09:23:40.213Z,6.10
2018-07-28T09:26:10.543Z,9.20
2018-07-28T09:28:40.707Z,5.53
2018-07-28T09:31:12.617Z,4.97
2018-07-28T09:34:04.125Z,8.53
2018-07-28T09:36:34.458Z,14.93
2018-07-28T09:39:09.546Z,9.40
2018-07-28T09:41:39.048Z,8.50
2018-07-28T09:44:28.406Z,7.07
2018-07-28T09:47:01.073Z,5.67
2018-07-28T09:49:30.902Z,10.83
2018-07-28T09:52:08.642Z,5.00
2018-07-28T09:54:48.742Z,5.60
2018-07-28T09:57:19.457Z,6.20
2018-07-28T09:59:49.930Z,5.83
2018-07-28T10:02:20.467Z,8.30
2018-07-28T10:04:50.949Z,9.23
2018-07-28T10:07:24.496Z,5.17
2018-07-28T10:09:54.562Z,5.03
2018-07-28T10:12:24.379Z,6.67
2018-07-28T10:14:55.866Z,4.60
2018-07-28T10:17:36.822Z,5.57
2018-07-28T10:20:08.846Z,7.10
2018-07-28T10:22:39.141Z,5.27
2018-07-28T10:25:10.903Z,10.87
2018-07-28T10:27:54.910Z,5.37
2018-07-28T10:30:24.155Z,6.30
2018-07-28T10:32:53.487Z,7.13
2018-07-28T10:35:23.198Z,4.60
2018-07-28T10:37:52.458Z,5.83
2018-07-28T10:40:22.250Z,4.87
2018-07-28T10:42:52.826Z,5.80
2018-07-28T10:45:22.070Z,6.53
2018-07-28T10:52:51.899Z,5.13
2018-07-28T10:55:21.132Z,4.73
2018-07-28T10:57:50.418Z,5.43
2018-07-28T11:00:21.825Z,6.00
2018-07-28T11:02:51.459Z,6.33
2018-07-28T11:05:22.037Z,6.40
2018-07-28T11:07:52.338Z,6.67
2018-07-28T11:10:21.849Z,5.30
2018-07-28T11:12:56.458Z,5.00
2018-07-28T11:15:25.752Z,6.63
2018-07-28T11:17:55.825Z,6.87
2018-07-28T11:20:25.932Z,5.13
2018-07-28T11:22:58.166Z,8.30
2018-07-28T11:25:27.700Z,5.37
2018-07-28T11:27:57.728Z,5.67
2018-07-28T11:33:23.235Z,9.20
2018-07-28T11:38:10.384Z,5.80
2018-07-28T11:40:51.218Z,9.13
2018-07-28T11:43:33.428Z,7.13
2018-07-28T11:46:03.373Z,7.33
2018-07-28T11:48:33.591Z,6.30
2018-07-28T11:51:03.319Z,6.73
2018-07-28T11:53:32.913Z,8.30
2018-07-28T11:56:03.297Z,5.07
2018-07-28T11:58:33.972Z,4.80
2018-07-28T12:01:05.093Z,5.47
2018-07-28T12:03:35.024Z,5.87
2018-07-28T12:06:05.254Z,6.00
2018-07-28T12:08:36.903Z,4.90
2018-07-28T12:11:06.825Z,4.50
2018-07-28T12:13:38.259Z,5.30
2018-07-28T12:16:11.555Z,5.10
2018-07-28T12:18:41.652Z,6.23
2018-07-28T12:21:17.350Z,4.90
2018-07-28T12:23:47.842Z,4.27
2018-07-28T12:26:17.930Z,5.00
2018-07-28T12:28:47.910Z,5.57
2018-07-28T12:31:17.867Z,6.00
2018-07-28T12:33:47.690Z,6.87
2018-07-28T12:36:17.526Z,4.80
2018-07-28T12:38:48.723Z,5.47
2018-07-28T12:41:20.343Z,8.07
2018-07-28T12:43:54.790Z,5.40
2018-07-28T12:46:24.818Z,4.87
2018-07-28T12:48:54.568Z,4.90
2018-07-28T12:51:26.470Z,6.03
2018-07-28T12:53:55.919Z,4.57
2018-07-28T12:56:30.842Z,4.70
2018-07-28T12:59:01.448Z,4.87
2018-07-28T13:01:31.639Z,4.93
2018-07-28T13:04:02.096Z,4.90
2018-07-28T13:06:32.052Z,4.83
2018-07-28T13:09:02.940Z,4.87
2018-07-28T13:11:33.555Z,6.90
2018-07-28T13:14:03.695Z,4.83
2018-07-28T13:16:33.867Z,5.70
2018-07-28T13:19:04.979Z,5.73
2018-07-28T13:21:35.614Z,4.73
2018-07-28T13:24:05.239Z,4.90
2018-07-28T13:26:35.364Z,5.10
2018-07-28T13:29:05.262Z,5.50
2018-07-28T13:31:35.198Z,5.40
2018-07-28T13:34:05.940Z,6.80
2018-07-28T13:36:36.527Z,5.40
2018-07-28T13:39:08.199Z,6.63
2018-07-28T13:41:38.583Z,5.20
2018-07-28T13:44:07.898Z,5.00
2018-07-28T13:46:38.137Z,4.93
2018-07-28T13:49:08.490Z,5.73
2018-07-28T13:51:38.124Z,5.03
2018-07-28T13:54:07.669Z,5.37
2018-07-28T13:56:36.974Z,5.13
2018-07-28T13:59:06.336Z,6.67
2018-07-28T14:01:36.781Z,5.23
2018-07-28T14:04:06.937Z,5.13
2018-07-28T14:06:36.241Z,4.80
2018-07-28T14:09:08.514Z,4.63
2018-07-28T14:11:38.267Z,3.87
2018-07-28T14:14:08.303Z,4.57
2018-07-28T14:16:37.669Z,4.00
2018-07-28T14:19:08.595Z,4.20
2018-07-28T14:21:38.265Z,4.37
2018-07-28T14:24:08.376Z,4.30
2018-07-28T14:26:42.315Z,4.07
2018-07-28T14:29:12.883Z,4.87
2018-07-28T14:31:43.014Z,4.40
2018-07-28T14:34:12.804Z,5.40
2018-07-28T14:36:42.957Z,4.57
2018-07-28T14:39:12.506Z,4.47
2018-07-28T14:41:42.039Z,4.37
2018-07-28T14:44:11.818Z,5.40
2018-07-28T14:46:42.737Z,4.43
2018-07-28T14:49:12.710Z,4.90
2018-07-28T14:51:43.088Z,6.93
2018-07-28T14:54:14.267Z,4.70
2018-07-28T14:56:43.603Z,4.40
2018-07-28T14:59:13.221Z,5.07
2018-07-28T15:01:43.284Z,4.73
2018-07-28T15:04:12.851Z,6.37
2018-07-28T15:06:42.160Z,5.10
2018-07-28T15:09:11.845Z,4.57
2018-07-28T15:11:42.190Z,4.80
2018-07-28T15:14:12.238Z,4.57
2018-07-28T15:16:41.793Z,4.80
2018-07-28T15:19:11.510Z,4.97
2018-07-28T15:21:41.892Z,5.30
2018-07-28T15:24:12.112Z,4.50
2018-07-28T15:26:41.407Z,5.10
2018-07-28T15:29:10.976Z,4.77
2018-07-28T15:31:40.746Z,5.47
2018-07-28T15:34:10.514Z,5.17
2018-07-28T15:36:39.815Z,4.53
2018-07-28T15:39:11.073Z,5.10
2018-07-28T15:41:42.264Z,5.40
2018-07-28T15:44:12.708Z,5.53
2018-07-28T15:46:43.438Z,5.57
2018-07-28T15:49:13.653Z,7.57
2018-07-28T15:51:57.842Z,6.23
2018-07-28T15:54:28.776Z,6.57
2018-07-28T15:56:58.989Z,7.17
2018-07-28T15:59:28.547Z,7.60
2018-07-28T16:06:58.758Z,6.60
2018-07-28T16:09:29.315Z,5.40
2018-07-28T16:11:58.931Z,6.67
2018-07-28T16:14:29.147Z,5.77
2018-07-28T16:16:59.390Z,5.80
2018-07-28T16:19:31.715Z,7.17
2018-07-28T16:22:02.195Z,5.53
2018-07-28T16:24:32.310Z,6.50
2018-07-28T16:27:03.222Z,6.87
2018-07-28T16:29:32.558Z,7.10
2018-07-28T16:32:02.181Z,7.27
2018-07-28T16:34:32.525Z,6.00
2018-07-28T16:37:04.262Z,9.33
2018-07-28T16:39:35.784Z,6.47
2018-07-28T16:42:06.607Z,6.30
2018-07-28T16:44:37.729Z,7.27
2018-07-28T16:47:08.366Z,6.57
2018-07-28T16:49:37.887Z,8.00
2018-07-28T16:52:10.314Z,6.53
2018-07-28T16:54:40.200Z,6.97
2018-07-28T16:57:17.239Z,6.77
2018-07-28T16:59:47.614Z,6.37
2018-07-28T17:02:17.971Z,6.37
2018-07-28T17:04:47.346Z,6.33
2018-07-28T17:07:17.402Z,8.27
2018-07-28T17:09:47.715Z,6.17
2018-07-28T17:12:18.944Z,7.40
2018-07-28T17:14:49.229Z,6.50
2018-07-28T17:17:19.505Z,7.17
2018-07-28T17:19:50.617Z,7.73
2018-07-28T17:22:21.192Z,7.03
2018-07-28T17:24:51.882Z,6.67
2018-07-28T17:27:27.307Z,10.20
2018-07-28T17:29:57.437Z,7.47
2018-07-28T17:32:34.983Z,11.57
2018-07-28T17:35:04.666Z,8.43
2018-07-28T17:37:41.379Z,6.67
2018-07-28T17:40:12.235Z,7.30
2018-07-28T17:42:43.249Z,11.23
2018-07-28T17:45:12.842Z,6.83
2018-07-28T17:47:45.615Z,7.03
2018-07-28T17:50:16.237Z,8.20
2018-07-28T17:52:45.583Z,7.53
2018-07-28T17:55:15.348Z,9.83
2018-07-28T17:57:46.058Z,10.17
2018-07-28T18:00:21.520Z,9.40
2018-07-28T18:02:53.144Z,14.97
2018-07-28T18:05:24.050Z,16.20
2018-07-28T18:07:56.596Z,57.60
2018-07-28T18:10:28.215Z,137.07
2018-07-28T18:12:58.725Z,104.33
2018-07-28T18:15:30.550Z,75.47
2018-07-28T18:18:03.040Z,115.00
2018-07-28T18:20:42.940Z,106.27
2018-07-28T18:23:18.288Z,51.00
2018-07-28T18:26:13.102Z,15.03
